sensor_id;sensor_type;location;lat;lon;timestamp;pressure;altitude;pressure_sealevel;temperature;humidity
31062;BME280;17724;53.546;9.974;2023-02-11T00:03:51;102842.25;;;6.03;100.00
31062;BME280;17724;53.546;9.974;2023-02-11T00:07:51;102838.66;;;6.03;100.00
31062;BME280;17724;53.546;9.974;2023-02-11T00:11:52;102833.38;;;6.01;100.00
31062;BME280;17724;53.546;9.974;2023-02-11T00:15:53;102842.25;;;6.03;100.00
31062;BME280;17724;53.546;9.974;2023-02-11T00:19:53;102823.28;;;6.02;100.00
31062;BME280;17724;53.546;9.974;2023-02-11T00:23:57;102821.75;;;6.07;100.00
31062;BME280;17724;53.546;9.974;2023-02-11T00:27:59;102811.34;;;6.03;100.00
31062;BME280;17724;53.546;9.974;2023-02-11T00:31:59;102815.13;;;5.93;100.00
31062;BME280;17724;53.546;9.974;2023-02-11T00:36:10;102828.94;;;6.00;100.00
31062;BME280;17724;53.546;9.974;2023-02-11T00:40:12;102824.13;;;6.02;100.00
31062;BME280;17724;53.546;9.974;2023-02-11T00:44:15;102827.25;;;5.99;100.00
31062;BME280;17724;53.546;9.974;2023-02-11T00:48:15;102823.69;;;5.90;100.00
31062;BME280;17724;53.546;9.974;2023-02-11T00:52:16;102826.44;;;5.74;100.00
31062;BME280;17724;53.546;9.974;2023-02-11T00:56:16;102824.06;;;5.79;100.00
31062;BME280;17724;53.546;9.974;2023-02-11T01:00:17;102828.88;;;5.69;100.00
31062;BME280;17724;53.546;9.974;2023-02-11T01:04:19;102818.56;;;5.87;100.00
31062;BME280;17724;53.546;9.974;2023-02-11T01:08:19;102805.91;;;5.86;100.00
31062;BME280;17724;53.546;9.974;2023-02-11T01:12:21;102801.84;;;5.82;100.00
31062;BME280;17724;53.546;9.974;2023-02-11T01:16:21;102784.09;;;5.95;100.00
31062;BME280;17724;53.546;9.974;2023-02-11T01:20:24;102788.03;;;5.84;100.00
31062;BME280;17724;53.546;9.974;2023-02-11T01:24:25;102791.56;;;6.01;100.00
31062;BME280;17724;53.546;9.974;2023-02-11T01:28:28;102781.50;;;5.93;100.00
31062;BME280;17724;53.546;9.974;2023-02-11T01:32:28;102782.19;;;5.95;100.00
31062;BME280;17724;53.546;9.974;2023-02-11T01:36:29;102775.22;;;5.92;100.00
31062;BME280;17724;53.546;9.974;2023-02-11T01:40:29;102790.88;;;5.99;100.00
31062;BME280;17724;53.546;9.974;2023-02-11T01:44:33;102784.56;;;5.98;100.00
31062;BME280;17724;53.546;9.974;2023-02-11T01:48:41;102772.13;;;5.96;100.00
31062;BME280;17724;53.546;9.974;2023-02-11T01:52:43;102765.97;;;5.93;100.00
31062;BME280;17724;53.546;9.974;2023-02-11T01:56:51;102769.41;;;5.96;100.00
31062;BME280;17724;53.546;9.974;2023-02-11T02:01:15;102760.88;;;5.82;100.00
31062;BME280;17724;53.546;9.974;2023-02-11T02:05:39;102742.75;;;5.89;100.00
31062;BME280;17724;53.546;9.974;2023-02-11T02:09:47;102747.56;;;5.87;100.00
31062;BME280;17724;53.546;9.974;2023-02-11T02:13:48;102745.19;;;5.84;100.00
31062;BME280;17724;53.546;9.974;2023-02-11T02:23:13;102745.38;;;5.83;100.00
31062;BME280;17724;53.546;9.974;2023-02-11T02:35:45;102729.56;;;6.01;100.00
31062;BME280;17724;53.546;9.974;2023-02-11T02:39:48;102709.78;;;5.99;100.00
31062;BME280;17724;53.546;9.974;2023-02-11T02:43:50;102723.03;;;6.10;100.00
31062;BME280;17724;53.546;9.974;2023-02-11T02:47:50;102711.63;;;6.07;100.00
31062;BME280;17724;53.546;9.974;2023-02-11T02:51:56;102707.06;;;5.99;100.00
31062;BME280;17724;53.546;9.974;2023-02-11T03:04:41;102716.84;;;6.16;100.00
31062;BME280;17724;53.546;9.974;2023-02-11T03:08:50;102719.75;;;6.15;100.00
31062;BME280;17724;53.546;9.974;2023-02-11T03:12:55;102709.25;;;6.04;100.00
31062;BME280;17724;53.546;9.974;2023-02-11T03:16:57;102719.88;;;5.99;100.00
31062;BME280;17724;53.546;9.974;2023-02-11T03:21:01;102715.50;;;6.12;100.00
31062;BME280;17724;53.546;9.974;2023-02-11T03:25:03;102714.16;;;6.08;100.00
31062;BME280;17724;53.546;9.974;2023-02-11T03:38:01;102684.53;;;6.20;100.00
31062;BME280;17724;53.546;9.974;2023-02-11T03:42:06;102685.50;;;6.27;100.00
31062;BME280;17724;53.546;9.974;2023-02-11T03:46:09;102685.13;;;6.30;100.00
31062;BME280;17724;53.546;9.974;2023-02-11T03:50:13;102672.84;;;6.26;100.00
31062;BME280;17724;53.546;9.974;2023-02-11T03:54:20;102666.94;;;6.37;100.00
31062;BME280;17724;53.546;9.974;2023-02-11T03:58:23;102681.22;;;6.48;100.00
31062;BME280;17724;53.546;9.974;2023-02-11T04:02:30;102662.66;;;6.43;100.00
31062;BME280;17724;53.546;9.974;2023-02-11T04:06:32;102677.25;;;6.50;100.00
31062;BME280;17724;53.546;9.974;2023-02-11T04:10:32;102667.34;;;6.49;100.00
31062;BME280;17724;53.546;9.974;2023-02-11T04:14:33;102676.63;;;6.63;100.00
31062;BME280;17724;53.546;9.974;2023-02-11T04:18:33;102681.06;;;6.64;100.00
31062;BME280;17724;53.546;9.974;2023-02-11T04:22:34;102677.41;;;6.72;100.00
31062;BME280;17724;53.546;9.974;2023-02-11T04:26:35;102677.56;;;6.70;100.00
31062;BME280;17724;53.546;9.974;2023-02-11T04:30:35;102682.97;;;6.78;100.00
31062;BME280;17724;53.546;9.974;2023-02-11T04:34:36;102689.09;;;6.80;100.00
31062;BME280;17724;53.546;9.974;2023-02-11T04:38:36;102683.91;;;6.71;100.00
31062;BME280;17724;53.546;9.974;2023-02-11T04:42:37;102692.88;;;6.94;100.00
31062;BME280;17724;53.546;9.974;2023-02-11T04:46:37;102692.88;;;6.94;100.00
31062;BME280;17724;53.546;9.974;2023-02-11T04:50:38;102694.22;;;6.98;100.00
31062;BME280;17724;53.546;9.974;2023-02-11T04:54:38;102691.06;;;7.01;100.00
31062;BME280;17724;53.546;9.974;2023-02-11T04:58:39;102697.47;;;6.94;100.00
31062;BME280;17724;53.546;9.974;2023-02-11T05:02:39;102695.06;;;6.99;100.00
31062;BME280;17724;53.546;9.974;2023-02-11T05:06:40;102686.75;;;6.92;100.00
31062;BME280;17724;53.546;9.974;2023-02-11T05:10:45;102714.00;;;7.00;100.00
31062;BME280;17724;53.546;9.974;2023-02-11T05:14:46;102707.50;;;7.16;100.00
31062;BME280;17724;53.546;9.974;2023-02-11T05:18:47;102699.88;;;7.11;100.00
31062;BME280;17724;53.546;9.974;2023-02-11T05:22:49;102711.38;;;7.07;100.00
31062;BME280;17724;53.546;9.974;2023-02-11T05:26:49;102695.53;;;7.02;100.00
31062;BME280;17724;53.546;9.974;2023-02-11T05:30:50;102697.13;;;7.11;100.00
31062;BME280;17724;53.546;9.974;2023-02-11T05:34:50;102687.47;;;6.86;100.00
31062;BME280;17724;53.546;9.974;2023-02-11T05:38:50;102689.28;;;6.94;100.00
31062;BME280;17724;53.546;9.974;2023-02-11T05:42:51;102667.13;;;6.88;100.00
31062;BME280;17724;53.546;9.974;2023-02-11T05:46:52;102671.56;;;7.04;100.00
31062;BME280;17724;53.546;9.974;2023-02-11T05:50:52;102659.19;;;6.94;100.00
31062;BME280;17724;53.546;9.974;2023-02-11T05:54:52;102647.34;;;6.86;100.00
31062;BME280;17724;53.546;9.974;2023-02-11T05:58:53;102653.44;;;6.88;100.00
31062;BME280;17724;53.546;9.974;2023-02-11T06:02:53;102659.28;;;6.85;100.00
31062;BME280;17724;53.546;9.974;2023-02-11T06:06:54;102667.69;;;6.99;100.00
31062;BME280;17724;53.546;9.974;2023-02-11T06:10:54;102656.19;;;6.88;100.00
31062;BME280;17724;53.546;9.974;2023-02-11T06:14:55;102655.50;;;7.01;100.00
31062;BME280;17724;53.546;9.974;2023-02-11T06:18:55;102647.88;;;6.97;100.00
31062;BME280;17724;53.546;9.974;2023-02-11T06:22:56;102632.03;;;6.77;100.00
31062;BME280;17724;53.546;9.974;2023-02-11T06:26:56;102629.88;;;6.87;100.00
31062;BME280;17724;53.546;9.974;2023-02-11T06:31:00;102644.97;;;6.98;100.00
31062;BME280;17724;53.546;9.974;2023-02-11T06:35:03;102675.63;;;7.08;100.00
31062;BME280;17724;53.546;9.974;2023-02-11T06:39:04;102697.41;;;7.16;100.00
31062;BME280;17724;53.546;9.974;2023-02-11T06:43:04;102691.56;;;7.20;100.00
31062;BME280;17724;53.546;9.974;2023-02-11T06:47:05;102693.53;;;7.26;100.00
31062;BME280;17724;53.546;9.974;2023-02-11T06:51:08;102689.66;;;7.20;100.00
31062;BME280;17724;53.546;9.974;2023-02-11T06:55:09;102704.03;;;7.22;100.00
31062;BME280;17724;53.546;9.974;2023-02-11T06:59:15;102705.50;;;7.25;100.00
31062;BME280;17724;53.546;9.974;2023-02-11T07:03:15;102720.88;;;7.26;100.00
31062;BME280;17724;53.546;9.974;2023-02-11T07:07:16;102716.34;;;7.18;100.00
31062;BME280;17724;53.546;9.974;2023-02-11T07:11:19;102718.16;;;7.26;100.00
31062;BME280;17724;53.546;9.974;2023-02-11T07:15:20;102728.81;;;7.21;100.00
31062;BME280;17724;53.546;9.974;2023-02-11T07:19:20;102729.19;;;7.18;100.00
31062;BME280;17724;53.546;9.974;2023-02-11T07:23:21;102733.44;;;7.20;100.00
31062;BME280;17724;53.546;9.974;2023-02-11T07:27:21;102722.91;;;7.02;100.00
31062;BME280;17724;53.546;9.974;2023-02-11T07:31:27;102737.78;;;7.00;100.00
31062;BME280;17724;53.546;9.974;2023-02-11T07:35:28;102744.63;;;6.81;100.00
31062;BME280;17724;53.546;9.974;2023-02-11T07:39:28;102747.56;;;6.94;100.00
31062;BME280;17724;53.546;9.974;2023-02-11T07:43:30;102739.84;;;6.83;100.00
31062;BME280;17724;53.546;9.974;2023-02-11T07:47:30;102733.63;;;6.89;100.00
31062;BME280;17724;53.546;9.974;2023-02-11T07:51:31;102745.03;;;6.93;100.00
31062;BME280;17724;53.546;9.974;2023-02-11T07:55:32;102768.00;;;7.06;100.00
31062;BME280;17724;53.546;9.974;2023-02-11T07:59:36;102766.66;;;7.17;100.00
31062;BME280;17724;53.546;9.974;2023-02-11T08:03:37;102772.81;;;7.19;100.00
31062;BME280;17724;53.546;9.974;2023-02-11T08:07:39;102765.94;;;7.23;100.00
31062;BME280;17724;53.546;9.974;2023-02-11T08:11:40;102770.63;;;7.29;100.00
31062;BME280;17724;53.546;9.974;2023-02-11T08:15:40;102774.88;;;7.17;100.00
31062;BME280;17724;53.546;9.974;2023-02-11T08:19:41;102767.72;;;7.31;100.00
31062;BME280;17724;53.546;9.974;2023-02-11T08:23:42;102773.38;;;7.44;100.00
31062;BME280;17724;53.546;9.974;2023-02-11T08:27:43;102770.25;;;7.47;100.00
31062;BME280;17724;53.546;9.974;2023-02-11T08:31:45;102790.53;;;7.38;100.00
31062;BME280;17724;53.546;9.974;2023-02-11T08:35:46;102797.34;;;7.57;100.00
31062;BME280;17724;53.546;9.974;2023-02-11T08:39:47;102806.22;;;7.59;100.00
31062;BME280;17724;53.546;9.974;2023-02-11T08:43:47;102815.09;;;7.61;100.00
31062;BME280;17724;53.546;9.974;2023-02-11T08:47:48;102808.03;;;7.67;100.00
31062;BME280;17724;53.546;9.974;2023-02-11T08:51:51;102822.00;;;7.72;100.00
31062;BME280;17724;53.546;9.974;2023-02-11T08:55:54;102820.38;;;7.77;100.00
31062;BME280;17724;53.546;9.974;2023-02-11T08:59:55;102812.38;;;7.46;100.00
31062;BME280;17724;53.546;9.974;2023-02-11T09:03:57;102807.56;;;7.48;100.00
31062;BME280;17724;53.546;9.974;2023-02-11T09:07:57;102823.69;;;7.73;100.00
31062;BME280;17724;53.546;9.974;2023-02-11T09:11:58;102812.19;;;7.48;100.00
31062;BME280;17724;53.546;9.974;2023-02-11T09:16:01;102827.94;;;7.60;100.00
31062;BME280;17724;53.546;9.974;2023-02-11T09:20:02;102822.63;;;7.74;100.00
31062;BME280;17724;53.546;9.974;2023-02-11T09:24:03;102812.72;;;7.58;100.00
31062;BME280;17724;53.546;9.974;2023-02-11T09:28:06;102817.75;;;7.54;100.00
31062;BME280;17724;53.546;9.974;2023-02-11T09:32:07;102839.66;;;7.54;100.00
31062;BME280;17724;53.546;9.974;2023-02-11T09:36:10;102854.59;;;7.67;100.00
31062;BME280;17724;53.546;9.974;2023-02-11T09:40:13;102855.88;;;7.85;100.00
31062;BME280;17724;53.546;9.974;2023-02-11T09:44:22;102854.28;;;7.76;100.00
31062;BME280;17724;53.546;9.974;2023-02-11T09:48:24;102840.31;;;7.71;100.00
31062;BME280;17724;53.546;9.974;2023-02-11T09:52:39;102845.31;;;7.68;100.00
31062;BME280;17724;53.546;9.974;2023-02-11T09:56:43;102847.22;;;7.67;100.00
31062;BME280;17724;53.546;9.974;2023-02-11T10:00:52;102861.09;;;7.80;100.00
31062;BME280;17724;53.546;9.974;2023-02-11T10:05:37;102855.41;;;7.97;100.00
31062;BME280;17724;53.546;9.974;2023-02-11T10:14:09;102844.38;;;7.90;100.00
31062;BME280;17724;53.546;9.974;2023-02-11T10:22:49;102891.03;;;8.11;100.00
31062;BME280;17724;53.546;9.974;2023-02-11T10:26:51;102879.59;;;8.08;100.00
31062;BME280;17724;53.546;9.974;2023-02-11T10:35:20;102891.22;;;8.10;100.00
31062;BME280;17724;53.546;9.974;2023-02-11T10:39:24;102892.34;;;8.15;100.00
31062;BME280;17724;53.546;9.974;2023-02-11T10:43:27;102897.56;;;8.10;100.00
31062;BME280;17724;53.546;9.974;2023-02-11T10:47:34;102888.19;;;8.05;100.00
31062;BME280;17724;53.546;9.974;2023-02-11T10:51:37;102878.16;;;7.97;100.00
31062;BME280;17724;53.546;9.974;2023-02-11T10:55:37;102868.06;;;7.98;100.00
31062;BME280;17724;53.546;9.974;2023-02-11T10:59:38;102860.81;;;7.90;100.00
31062;BME280;17724;53.546;9.974;2023-02-11T11:03:46;102862.31;;;7.93;100.00
31062;BME280;17724;53.546;9.974;2023-02-11T11:07:57;102855.97;;;7.77;100.00
31062;BME280;17724;53.546;9.974;2023-02-11T11:11:58;102853.72;;;7.81;100.00
31062;BME280;17724;53.546;9.974;2023-02-11T11:20:18;102861.47;;;7.92;100.00
31062;BME280;17724;53.546;9.974;2023-02-11T11:28:41;102869.22;;;7.88;100.00
31062;BME280;17724;53.546;9.974;2023-02-11T11:32:42;102876.94;;;7.85;100.00
31062;BME280;17724;53.546;9.974;2023-02-11T11:36:43;102879.69;;;7.85;100.00
31062;BME280;17724;53.546;9.974;2023-02-11T11:49:27;102888.97;;;7.99;100.00
31062;BME280;17724;53.546;9.974;2023-02-11T11:53:47;102893.03;;;8.03;100.00
31062;BME280;17724;53.546;9.974;2023-02-11T11:57:50;102896.97;;;8.00;100.00
31062;BME280;17724;53.546;9.974;2023-02-11T12:06:13;102898.19;;;8.12;100.00
31062;BME280;17724;53.546;9.974;2023-02-11T12:14:48;102895.75;;;8.03;100.00
31062;BME280;17724;53.546;9.974;2023-02-11T12:40:26;102913.59;;;8.28;100.00
31062;BME280;17724;53.546;9.974;2023-02-11T12:49:22;102928.25;;;8.21;100.00
31062;BME280;17724;53.546;9.974;2023-02-11T12:57:55;102916.63;;;7.89;100.00
31062;BME280;17724;53.546;9.974;2023-02-11T13:01:58;102910.59;;;7.79;100.00
31062;BME280;17724;53.546;9.974;2023-02-11T13:06:38;102906.50;;;7.89;100.00
31062;BME280;17724;53.546;9.974;2023-02-11T13:10:42;102898.59;;;7.95;100.00
31062;BME280;17724;53.546;9.974;2023-02-11T13:14:46;102897.19;;;7.99;100.00
31062;BME280;17724;53.546;9.974;2023-02-11T13:28:05;102901.78;;;8.28;100.00
31062;BME280;17724;53.546;9.974;2023-02-11T13:32:14;102910.19;;;8.41;100.00
31062;BME280;17724;53.546;9.974;2023-02-11T13:36:17;102916.81;;;8.47;100.00
31062;BME280;17724;53.546;9.974;2023-02-11T13:40:21;102915.44;;;8.57;100.00
31062;BME280;17724;53.546;9.974;2023-02-11T13:44:24;102922.81;;;8.57;100.00
31062;BME280;17724;53.546;9.974;2023-02-11T13:48:45;102921.38;;;8.61;100.00
31062;BME280;17724;53.546;9.974;2023-02-11T13:52:59;102908.38;;;8.33;100.00
31062;BME280;17724;53.546;9.974;2023-02-11T14:06:12;102892.59;;;8.50;100.00
31062;BME280;17724;53.546;9.974;2023-02-11T14:19:07;102943.03;;;8.71;100.00
31062;BME280;17724;53.546;9.974;2023-02-11T14:23:21;102950.81;;;8.88;100.00
31062;BME280;17724;53.546;9.974;2023-02-11T14:31:57;102950.69;;;8.97;100.00
31062;BME280;17724;53.546;9.974;2023-02-11T14:44:29;102986.41;;;9.18;100.00
31062;BME280;17724;53.546;9.974;2023-02-11T14:48:33;102998.84;;;9.14;100.00
31062;BME280;17724;53.546;9.974;2023-02-11T14:52:36;102999.03;;;9.34;100.00
31062;BME280;17724;53.546;9.974;2023-02-11T14:56:38;103004.78;;;9.39;100.00
31062;BME280;17724;53.546;9.974;2023-02-11T15:05:22;103029.41;;;9.32;100.00
31062;BME280;17724;53.546;9.974;2023-02-11T15:13:33;103045.91;;;9.32;100.00
31062;BME280;17724;53.546;9.974;2023-02-11T15:17:34;103050.94;;;9.50;100.00
31062;BME280;17724;53.546;9.974;2023-02-11T15:21:35;103051.00;;;9.57;100.00
31062;BME280;17724;53.546;9.974;2023-02-11T15:25:42;103044.38;;;9.08;100.00
31062;BME280;17724;53.546;9.974;2023-02-11T15:29:48;103044.72;;;9.20;100.00
31062;BME280;17724;53.546;9.974;2023-02-11T15:33:50;103045.53;;;8.99;100.00
31062;BME280;17724;53.546;9.974;2023-02-11T15:37:51;103045.38;;;8.86;100.00
31062;BME280;17724;53.546;9.974;2023-02-11T15:41:52;103053.56;;;9.01;100.00
31062;BME280;17724;53.546;9.974;2023-02-11T15:45:56;103044.75;;;9.05;100.00
31062;BME280;17724;53.546;9.974;2023-02-11T15:49:58;103052.81;;;8.92;100.00
31062;BME280;17724;53.546;9.974;2023-02-11T15:54:01;103045.41;;;8.71;100.00
31062;BME280;17724;53.546;9.974;2023-02-11T15:58:02;103052.69;;;9.15;100.00
31062;BME280;17724;53.546;9.974;2023-02-11T16:02:19;103067.13;;;9.02;100.00
31062;BME280;17724;53.546;9.974;2023-02-11T16:06:34;103076.44;;;9.23;100.00
31062;BME280;17724;53.546;9.974;2023-02-11T16:10:35;103074.88;;;8.99;100.00
31062;BME280;17724;53.546;9.974;2023-02-11T16:14:36;103080.66;;;8.89;100.00
31062;BME280;17724;53.546;9.974;2023-02-11T16:18:49;103074.31;;;8.88;100.00
31062;BME280;17724;53.546;9.974;2023-02-11T16:22:54;103076.88;;;8.90;100.00
31062;BME280;17724;53.546;9.974;2023-02-11T16:26:58;103103.19;;;8.84;100.00
31062;BME280;17724;53.546;9.974;2023-02-11T16:31:03;103100.06;;;8.87;100.00
31062;BME280;17724;53.546;9.974;2023-02-11T16:35:09;103103.06;;;8.93;100.00
31062;BME280;17724;53.546;9.974;2023-02-11T16:39:11;103101.66;;;8.97;100.00
31062;BME280;17724;53.546;9.974;2023-02-11T16:43:11;103130.09;;;9.25;100.00
31062;BME280;17724;53.546;9.974;2023-02-11T16:47:26;103132.16;;;9.02;100.00
31062;BME280;17724;53.546;9.974;2023-02-11T16:51:27;103132.25;;;8.94;100.00
31062;BME280;17724;53.546;9.974;2023-02-11T16:55:27;103137.22;;;9.05;100.00
31062;BME280;17724;53.546;9.974;2023-02-11T16:59:28;103137.53;;;9.10;100.00
31062;BME280;17724;53.546;9.974;2023-02-11T17:03:29;103152.94;;;8.96;100.00
31062;BME280;17724;53.546;9.974;2023-02-11T17:07:35;103153.16;;;8.95;100.00
31062;BME280;17724;53.546;9.974;2023-02-11T17:11:35;103154.38;;;9.07;100.00
31062;BME280;17724;53.546;9.974;2023-02-11T17:15:35;103158.06;;;8.99;100.00
31062;BME280;17724;53.546;9.974;2023-02-11T17:19:36;103163.84;;;8.89;100.00
31062;BME280;17724;53.546;9.974;2023-02-11T17:23:37;103173.41;;;8.94;100.00
31062;BME280;17724;53.546;9.974;2023-02-11T17:27:37;103167.91;;;9.08;100.00
31062;BME280;17724;53.546;9.974;2023-02-11T17:31:39;103179.94;;;9.07;100.00
31062;BME280;17724;53.546;9.974;2023-02-11T17:35:39;103196.78;;;9.04;100.00
31062;BME280;17724;53.546;9.974;2023-02-11T17:39:40;103197.06;;;9.09;100.00
31062;BME280;17724;53.546;9.974;2023-02-11T17:43:40;103189.69;;;8.95;100.00
31062;BME280;17724;53.546;9.974;2023-02-11T17:47:41;103196.00;;;9.25;100.00
31062;BME280;17724;53.546;9.974;2023-02-11T17:51:42;103201.22;;;9.20;100.00
31062;BME280;17724;53.546;9.974;2023-02-11T17:55:43;103192.63;;;8.94;100.00
31062;BME280;17724;53.546;9.974;2023-02-11T17:59:43;103199.88;;;9.01;100.00
31062;BME280;17724;53.546;9.974;2023-02-11T18:03:44;103224.25;;;9.19;100.00
31062;BME280;17724;53.546;9.974;2023-02-11T18:07:45;103207.28;;;9.01;100.00
31062;BME280;17724;53.546;9.974;2023-02-11T18:11:47;103226.78;;;8.91;100.00
31062;BME280;17724;53.546;9.974;2023-02-11T18:15:49;103219.03;;;8.95;100.00
31062;BME280;17724;53.546;9.974;2023-02-11T18:19:54;103233.81;;;8.94;100.00
31062;BME280;17724;53.546;9.974;2023-02-11T18:23:55;103231.88;;;9.09;100.00
31062;BME280;17724;53.546;9.974;2023-02-11T18:27:56;103241.09;;;9.31;100.00
31062;BME280;17724;53.546;9.974;2023-02-11T18:31:57;103244.69;;;9.46;100.00
31062;BME280;17724;53.546;9.974;2023-02-11T18:35:57;103251.59;;;9.27;100.00
31062;BME280;17724;53.546;9.974;2023-02-11T18:39:58;103253.88;;;9.38;100.00
31062;BME280;17724;53.546;9.974;2023-02-11T18:43:59;103257.94;;;8.98;100.00
31062;BME280;17724;53.546;9.974;2023-02-11T18:48:02;103267.88;;;9.14;100.00
31062;BME280;17724;53.546;9.974;2023-02-11T18:52:04;103263.53;;;9.20;100.00
31062;BME280;17724;53.546;9.974;2023-02-11T18:56:07;103250.94;;;9.10;100.00
31062;BME280;17724;53.546;9.974;2023-02-11T19:00:10;103264.09;;;9.15;100.00
31062;BME280;17724;53.546;9.974;2023-02-11T19:04:11;103255.38;;;8.97;100.00
31062;BME280;17724;53.546;9.974;2023-02-11T19:08:14;103280.19;;;9.03;100.00
31062;BME280;17724;53.546;9.974;2023-02-11T19:12:16;103289.66;;;9.16;100.00
31062;BME280;17724;53.546;9.974;2023-02-11T19:16:16;103305.44;;;8.99;100.00
31062;BME280;17724;53.546;9.974;2023-02-11T19:20:18;103303.28;;;9.24;100.00
31062;BME280;17724;53.546;9.974;2023-02-11T19:24:20;103312.50;;;9.31;100.00
31062;BME280;17724;53.546;9.974;2023-02-11T19:28:21;103301.88;;;9.28;100.00
31062;BME280;17724;53.546;9.974;2023-02-11T19:32:21;103294.22;;;9.38;100.00
31062;BME280;17724;53.546;9.974;2023-02-11T19:36:22;103280.66;;;9.07;100.00
31062;BME280;17724;53.546;9.974;2023-02-11T19:40:23;103281.03;;;9.48;100.00
31062;BME280;17724;53.546;9.974;2023-02-11T19:44:23;103279.72;;;9.15;100.00
31062;BME280;17724;53.546;9.974;2023-02-11T19:48:24;103292.03;;;9.48;100.00
31062;BME280;17724;53.546;9.974;2023-02-11T19:52:25;103294.22;;;9.38;100.00
31062;BME280;17724;53.546;9.974;2023-02-11T19:56:26;103292.03;;;9.19;100.00
31062;BME280;17724;53.546;9.974;2023-02-11T20:00:30;103284.06;;;9.24;100.00
31062;BME280;17724;53.546;9.974;2023-02-11T20:04:30;103284.06;;;9.53;100.00
31062;BME280;17724;53.546;9.974;2023-02-11T20:08:31;103281.13;;;9.10;100.00
31062;BME280;17724;53.546;9.974;2023-02-11T20:12:32;103290.41;;;9.24;100.00
31062;BME280;17724;53.546;9.974;2023-02-11T20:16:33;103305.56;;;9.65;100.00
31062;BME280;17724;53.546;9.974;2023-02-11T20:20:39;103313.25;;;9.54;100.00
31062;BME280;17724;53.546;9.974;2023-02-11T20:24:40;103301.59;;;9.52;100.00
31062;BME280;17724;53.546;9.974;2023-02-11T20:28:41;103320.06;;;9.44;100.00
31062;BME280;17724;53.546;9.974;2023-02-11T20:32:41;103319.19;;;9.73;100.00
31062;BME280;17724;53.546;9.974;2023-02-11T20:36:42;103335.41;;;9.68;100.00
31062;BME280;17724;53.546;9.974;2023-02-11T20:40:50;103350.38;;;9.65;100.00
31062;BME280;17724;53.546;9.974;2023-02-11T20:44:51;103348.78;;;9.71;100.00
31062;BME280;17724;53.546;9.974;2023-02-11T20:48:53;103358.81;;;9.63;100.00
31062;BME280;17724;53.546;9.974;2023-02-11T20:52:54;103354.63;;;9.53;100.00
31062;BME280;17724;53.546;9.974;2023-02-11T20:56:55;103345.47;;;9.46;100.00
31062;BME280;17724;53.546;9.974;2023-02-11T21:01:15;103352.09;;;9.51;100.00
31062;BME280;17724;53.546;9.974;2023-02-11T21:05:18;103354.06;;;9.72;100.00
31062;BME280;17724;53.546;9.974;2023-02-11T21:09:21;103352.16;;;9.73;100.00
31062;BME280;17724;53.546;9.974;2023-02-11T21:13:22;103352.84;;;9.60;100.00
31062;BME280;17724;53.546;9.974;2023-02-11T21:17:22;103367.53;;;9.52;100.00
31062;BME280;17724;53.546;9.974;2023-02-11T21:21:25;103372.94;;;9.60;100.00
31062;BME280;17724;53.546;9.974;2023-02-11T21:25:26;103391.38;;;9.37;100.00
31062;BME280;17724;53.546;9.974;2023-02-11T21:29:27;103398.72;;;9.59;100.00
31062;BME280;17724;53.546;9.974;2023-02-11T21:33:28;103400.97;;;9.56;100.00
31062;BME280;17724;53.546;9.974;2023-02-11T21:37:29;103416.25;;;9.58;100.00
31062;BME280;17724;53.546;9.974;2023-02-11T21:41:30;103408.84;;;9.59;100.00
31062;BME280;17724;53.546;9.974;2023-02-11T21:45:31;103418.41;;;9.63;100.00
31062;BME280;17724;53.546;9.974;2023-02-11T21:49:31;103420.28;;;9.48;100.00
31062;BME280;17724;53.546;9.974;2023-02-11T21:53:32;103436.22;;;9.52;100.00
31062;BME280;17724;53.546;9.974;2023-02-11T21:57:33;103445.06;;;9.62;100.00
31062;BME280;17724;53.546;9.974;2023-02-11T22:01:33;103442.09;;;9.64;100.00
31062;BME280;17724;53.546;9.974;2023-02-11T22:05:38;103459.44;;;9.65;100.00
31062;BME280;17724;53.546;9.974;2023-02-11T22:09:39;103461.13;;;9.51;100.00
31062;BME280;17724;53.546;9.974;2023-02-11T22:13:40;103456.84;;;9.48;100.00
31062;BME280;17724;53.546;9.974;2023-02-11T22:17:41;103460.03;;;9.37;100.00
31062;BME280;17724;53.546;9.974;2023-02-11T22:21:41;103449.44;;;9.34;100.00
31062;BME280;17724;53.546;9.974;2023-02-11T22:25:42;103450.88;;;9.30;100.00
31062;BME280;17724;53.546;9.974;2023-02-11T22:29:43;103459.09;;;9.30;100.00
31062;BME280;17724;53.546;9.974;2023-02-11T22:33:44;103450.81;;;9.15;100.00
31062;BME280;17724;53.546;9.974;2023-02-11T22:37:44;103462.03;;;8.82;100.00
31062;BME280;17724;53.546;9.974;2023-02-11T22:41:45;103464.16;;;8.95;100.00
31062;BME280;17724;53.546;9.974;2023-02-11T22:45:46;103454.81;;;9.04;100.00
31062;BME280;17724;53.546;9.974;2023-02-11T22:49:49;103483.75;;;8.92;100.00
31062;BME280;17724;53.546;9.974;2023-02-11T22:53:58;103489.97;;;8.86;100.00
31062;BME280;17724;53.546;9.974;2023-02-11T22:57:58;103492.72;;;8.86;100.00
31062;BME280;17724;53.546;9.974;2023-02-11T23:01:59;103509.13;;;8.63;100.00
31062;BME280;17724;53.546;9.974;2023-02-11T23:06:00;103506.59;;;8.53;100.00
31062;BME280;17724;53.546;9.974;2023-02-11T23:10:00;103503.91;;;8.29;100.00
31062;BME280;17724;53.546;9.974;2023-02-11T23:14:01;103504.44;;;8.32;100.00
31062;BME280;17724;53.546;9.974;2023-02-11T23:18:02;103500.28;;;8.36;100.00
31062;BME280;17724;53.546;9.974;2023-02-11T23:22:02;103501.38;;;8.27;100.00
31062;BME280;17724;53.546;9.974;2023-02-11T23:26:08;103519.97;;;7.93;100.00
31062;BME280;17724;53.546;9.974;2023-02-11T23:30:09;103515.63;;;8.14;100.00
31062;BME280;17724;53.546;9.974;2023-02-11T23:34:10;103512.91;;;8.14;100.00
31062;BME280;17724;53.546;9.974;2023-02-11T23:38:10;103523.81;;;8.31;100.00
31062;BME280;17724;53.546;9.974;2023-02-11T23:42:11;103515.63;;;8.23;100.00